sensor_id;sensor_type;location;lat;lon;timestamp;temperature;humidity
21023;DHT22;10669;51.076;3.714;2022-09-24T00:01:33;14.20;99.90
21023;DHT22;10669;51.076;3.714;2022-09-24T00:04:09;14.30;99.90
21023;DHT22;10669;51.076;3.714;2022-09-24T00:06:45;14.30;99.90
21023;DHT22;10669;51.076;3.714;2022-09-24T00:09:13;14.30;99.90
21023;DHT22;10669;51.076;3.714;2022-09-24T00:11:42;14.30;99.90
21023;DHT22;10669;51.076;3.714;2022-09-24T00:14:12;14.30;99.90
21023;DHT22;10669;51.076;3.714;2022-09-24T00:16:42;14.20;99.90
21023;DHT22;10669;51.076;3.714;2022-09-24T00:19:08;14.20;99.90
21023;DHT22;10669;51.076;3.714;2022-09-24T00:21:36;14.30;99.90
21023;DHT22;10669;51.076;3.714;2022-09-24T00:24:05;14.20;99.90
21023;DHT22;10669;51.076;3.714;2022-09-24T00:26:32;14.20;99.90
21023;DHT22;10669;51.076;3.714;2022-09-24T00:29:27;14.20;99.90
21023;DHT22;10669;51.076;3.714;2022-09-24T00:31:53;14.20;99.90
21023;DHT22;10669;51.076;3.714;2022-09-24T00:34:20;14.10;99.90
21023;DHT22;10669;51.076;3.714;2022-09-24T00:36:47;14.10;99.90
21023;DHT22;10669;51.076;3.714;2022-09-24T00:39:14;14.10;99.90
21023;DHT22;10669;51.076;3.714;2022-09-24T00:41:40;14.00;99.90
21023;DHT22;10669;51.076;3.714;2022-09-24T00:47:04;14.10;99.90
21023;DHT22;10669;51.076;3.714;2022-09-24T00:49:31;14.10;99.90
21023;DHT22;10669;51.076;3.714;2022-09-24T00:52:00;14.10;99.90
21023;DHT22;10669;51.076;3.714;2022-09-24T00:54:28;14.10;99.90
21023;DHT22;10669;51.076;3.714;2022-09-24T00:56:58;14.10;99.90
21023;DHT22;10669;51.076;3.714;2022-09-24T00:59:26;14.10;99.90
21023;DHT22;10669;51.076;3.714;2022-09-24T01:01:53;14.00;99.90
21023;DHT22;10669;51.076;3.714;2022-09-24T01:04:25;13.80;99.90
21023;DHT22;10669;51.076;3.714;2022-09-24T01:06:51;13.90;99.90
21023;DHT22;10669;51.076;3.714;2022-09-24T01:09:19;13.80;99.90
21023;DHT22;10669;51.076;3.714;2022-09-24T01:28:43;13.60;99.90
21023;DHT22;10669;51.076;3.714;2022-09-24T01:31:28;13.50;99.90
21023;DHT22;10669;51.076;3.714;2022-09-24T01:33:58;13.40;99.90
21023;DHT22;10669;51.076;3.714;2022-09-24T01:36:29;13.50;99.90
21023;DHT22;10669;51.076;3.714;2022-09-24T01:38:58;13.60;99.90
21023;DHT22;10669;51.076;3.714;2022-09-24T01:41:25;13.50;99.90
21023;DHT22;10669;51.076;3.714;2022-09-24T01:43:52;13.60;99.90
21023;DHT22;10669;51.076;3.714;2022-09-24T01:46:20;13.70;99.90
21023;DHT22;10669;51.076;3.714;2022-09-24T01:48:48;13.60;99.90
21023;DHT22;10669;51.076;3.714;2022-09-24T01:51:24;13.60;99.90
21023;DHT22;10669;51.076;3.714;2022-09-24T01:54:05;13.60;99.90
21023;DHT22;10669;51.076;3.714;2022-09-24T01:56:46;13.50;99.90
21023;DHT22;10669;51.076;3.714;2022-09-24T01:59:20;13.50;99.90
21023;DHT22;10669;51.076;3.714;2022-09-24T02:02:06;13.50;99.90
21023;DHT22;10669;51.076;3.714;2022-09-24T02:04:38;13.40;99.90
21023;DHT22;10669;51.076;3.714;2022-09-24T02:07:11;13.40;99.90
21023;DHT22;10669;51.076;3.714;2022-09-24T02:09:42;13.40;99.90
21023;DHT22;10669;51.076;3.714;2022-09-24T02:12:18;13.40;99.90
21023;DHT22;10669;51.076;3.714;2022-09-24T02:14:56;13.50;99.90
21023;DHT22;10669;51.076;3.714;2022-09-24T02:17:29;13.60;99.90
21023;DHT22;10669;51.076;3.714;2022-09-24T02:20:00;13.50;99.90
21023;DHT22;10669;51.076;3.714;2022-09-24T02:22:28;13.60;99.90
21023;DHT22;10669;51.076;3.714;2022-09-24T02:24:56;13.60;99.90
21023;DHT22;10669;51.076;3.714;2022-09-24T02:27:25;13.60;99.90
21023;DHT22;10669;51.076;3.714;2022-09-24T02:29:56;13.60;99.90
21023;DHT22;10669;51.076;3.714;2022-09-24T02:32:25;13.60;99.90
21023;DHT22;10669;51.076;3.714;2022-09-24T02:34:57;13.50;99.90
21023;DHT22;10669;51.076;3.714;2022-09-24T02:37:35;13.50;99.90
21023;DHT22;10669;51.076;3.714;2022-09-24T02:40:05;13.60;99.90
21023;DHT22;10669;51.076;3.714;2022-09-24T02:42:31;13.50;99.90
21023;DHT22;10669;51.076;3.714;2022-09-24T02:44:58;13.40;99.90
21023;DHT22;10669;51.076;3.714;2022-09-24T02:47:25;13.40;99.90
21023;DHT22;10669;51.076;3.714;2022-09-24T02:49:51;13.50;99.90
21023;DHT22;10669;51.076;3.714;2022-09-24T02:52:17;13.50;99.90
21023;DHT22;10669;51.076;3.714;2022-09-24T02:54:44;13.50;99.90
21023;DHT22;10669;51.076;3.714;2022-09-24T02:57:10;13.60;99.90
21023;DHT22;10669;51.076;3.714;2022-09-24T02:59:36;13.50;99.90
21023;DHT22;10669;51.076;3.714;2022-09-24T03:02:03;13.60;99.90
21023;DHT22;10669;51.076;3.714;2022-09-24T03:04:30;13.60;99.90
21023;DHT22;10669;51.076;3.714;2022-09-24T03:06:57;13.60;99.90
21023;DHT22;10669;51.076;3.714;2022-09-24T03:09:25;13.60;99.90
21023;DHT22;10669;51.076;3.714;2022-09-24T03:11:50;13.60;99.90
21023;DHT22;10669;51.076;3.714;2022-09-24T03:14:19;13.60;99.90
21023;DHT22;10669;51.076;3.714;2022-09-24T03:16:48;13.70;99.90
21023;DHT22;10669;51.076;3.714;2022-09-24T03:19:15;13.60;99.90
21023;DHT22;10669;51.076;3.714;2022-09-24T03:21:41;13.60;99.90
21023;DHT22;10669;51.076;3.714;2022-09-24T03:24:08;13.50;99.90
21023;DHT22;10669;51.076;3.714;2022-09-24T03:26:33;13.60;99.90
21023;DHT22;10669;51.076;3.714;2022-09-24T03:29:00;13.50;99.90
21023;DHT22;10669;51.076;3.714;2022-09-24T03:31:28;13.50;99.90
21023;DHT22;10669;51.076;3.714;2022-09-24T03:33:54;13.40;99.90
21023;DHT22;10669;51.076;3.714;2022-09-24T03:36:24;13.40;99.90
21023;DHT22;10669;51.076;3.714;2022-09-24T03:38:56;13.30;99.90
21023;DHT22;10669;51.076;3.714;2022-09-24T03:41:25;13.40;99.90
21023;DHT22;10669;51.076;3.714;2022-09-24T03:43:55;13.40;99.90
21023;DHT22;10669;51.076;3.714;2022-09-24T03:46:22;13.50;99.90
21023;DHT22;10669;51.076;3.714;2022-09-24T03:48:54;13.60;99.90
21023;DHT22;10669;51.076;3.714;2022-09-24T03:51:24;13.60;99.90
21023;DHT22;10669;51.076;3.714;2022-09-24T03:53:50;13.60;99.90
21023;DHT22;10669;51.076;3.714;2022-09-24T03:56:16;13.50;99.90
21023;DHT22;10669;51.076;3.714;2022-09-24T03:58:47;13.40;99.90
21023;DHT22;10669;51.076;3.714;2022-09-24T04:01:16;13.50;99.90
21023;DHT22;10669;51.076;3.714;2022-09-24T04:03:49;13.50;99.90
21023;DHT22;10669;51.076;3.714;2022-09-24T04:06:15;13.60;99.90
21023;DHT22;10669;51.076;3.714;2022-09-24T04:08:44;13.60;99.90
21023;DHT22;10669;51.076;3.714;2022-09-24T04:11:10;13.60;99.90
21023;DHT22;10669;51.076;3.714;2022-09-24T04:13:36;13.60;99.90
21023;DHT22;10669;51.076;3.714;2022-09-24T04:16:05;13.60;99.90
21023;DHT22;10669;51.076;3.714;2022-09-24T04:18:34;13.50;99.90
21023;DHT22;10669;51.076;3.714;2022-09-24T04:20:59;13.60;99.90
21023;DHT22;10669;51.076;3.714;2022-09-24T04:23:27;13.60;99.90
21023;DHT22;10669;51.076;3.714;2022-09-24T04:25:57;13.60;99.90
21023;DHT22;10669;51.076;3.714;2022-09-24T04:28:26;13.40;99.90
21023;DHT22;10669;51.076;3.714;2022-09-24T04:30:54;13.40;99.90
21023;DHT22;10669;51.076;3.714;2022-09-24T04:33:21;13.40;99.90
21023;DHT22;10669;51.076;3.714;2022-09-24T04:35:47;13.40;99.90
21023;DHT22;10669;51.076;3.714;2022-09-24T04:38:14;13.40;99.90
21023;DHT22;10669;51.076;3.714;2022-09-24T04:40:40;13.40;99.90
21023;DHT22;10669;51.076;3.714;2022-09-24T04:43:08;13.40;99.90
21023;DHT22;10669;51.076;3.714;2022-09-24T04:45:36;13.50;99.90
21023;DHT22;10669;51.076;3.714;2022-09-24T04:48:03;13.40;99.90
21023;DHT22;10669;51.076;3.714;2022-09-24T04:50:29;13.40;99.90
21023;DHT22;10669;51.076;3.714;2022-09-24T04:53:00;13.40;99.90
21023;DHT22;10669;51.076;3.714;2022-09-24T04:55:27;13.40;99.90
21023;DHT22;10669;51.076;3.714;2022-09-24T04:57:56;13.40;99.90
21023;DHT22;10669;51.076;3.714;2022-09-24T05:00:23;13.40;99.90
21023;DHT22;10669;51.076;3.714;2022-09-24T05:02:55;13.50;99.90
21023;DHT22;10669;51.076;3.714;2022-09-24T05:05:22;13.50;99.90
21023;DHT22;10669;51.076;3.714;2022-09-24T05:07:49;13.60;99.90
21023;DHT22;10669;51.076;3.714;2022-09-24T05:10:15;13.60;99.90
21023;DHT22;10669;51.076;3.714;2022-09-24T05:12:41;13.60;99.90
21023;DHT22;10669;51.076;3.714;2022-09-24T05:15:07;13.60;99.90
21023;DHT22;10669;51.076;3.714;2022-09-24T05:17:34;13.70;99.90
21023;DHT22;10669;51.076;3.714;2022-09-24T05:20:02;13.70;99.90
21023;DHT22;10669;51.076;3.714;2022-09-24T05:22:30;13.90;99.90
21023;DHT22;10669;51.076;3.714;2022-09-24T05:24:56;13.90;99.90
21023;DHT22;10669;51.076;3.714;2022-09-24T05:27:22;14.10;99.90
21023;DHT22;10669;51.076;3.714;2022-09-24T05:29:48;14.00;99.90
21023;DHT22;10669;51.076;3.714;2022-09-24T05:32:17;14.00;99.90
21023;DHT22;10669;51.076;3.714;2022-09-24T05:34:44;14.00;99.90
21023;DHT22;10669;51.076;3.714;2022-09-24T05:37:10;14.10;99.90
21023;DHT22;10669;51.076;3.714;2022-09-24T05:39:37;14.00;99.90
21023;DHT22;10669;51.076;3.714;2022-09-24T05:42:03;14.00;99.90
21023;DHT22;10669;51.076;3.714;2022-09-24T05:44:30;13.90;99.90
21023;DHT22;10669;51.076;3.714;2022-09-24T05:46:56;13.80;99.90
21023;DHT22;10669;51.076;3.714;2022-09-24T05:49:22;13.80;99.90
21023;DHT22;10669;51.076;3.714;2022-09-24T05:51:48;13.80;99.90
21023;DHT22;10669;51.076;3.714;2022-09-24T05:54:15;13.80;99.90
21023;DHT22;10669;51.076;3.714;2022-09-24T05:56:41;13.80;99.90
21023;DHT22;10669;51.076;3.714;2022-09-24T05:59:09;13.90;99.90
21023;DHT22;10669;51.076;3.714;2022-09-24T06:01:35;13.90;99.90
21023;DHT22;10669;51.076;3.714;2022-09-24T06:04:01;13.90;99.90
21023;DHT22;10669;51.076;3.714;2022-09-24T06:06:28;13.90;99.90
21023;DHT22;10669;51.076;3.714;2022-09-24T06:08:55;13.90;99.90
21023;DHT22;10669;51.076;3.714;2022-09-24T06:11:22;14.10;99.90
21023;DHT22;10669;51.076;3.714;2022-09-24T06:13:50;14.10;99.90
21023;DHT22;10669;51.076;3.714;2022-09-24T06:16:17;14.00;99.90
21023;DHT22;10669;51.076;3.714;2022-09-24T06:18:45;14.20;99.90
21023;DHT22;10669;51.076;3.714;2022-09-24T06:21:14;14.20;99.90
21023;DHT22;10669;51.076;3.714;2022-09-24T06:23:45;14.30;99.90
21023;DHT22;10669;51.076;3.714;2022-09-24T06:26:13;14.40;99.90
21023;DHT22;10669;51.076;3.714;2022-09-24T06:28:40;14.30;99.90
21023;DHT22;10669;51.076;3.714;2022-09-24T06:31:09;14.40;99.90
21023;DHT22;10669;51.076;3.714;2022-09-24T06:33:38;14.50;99.90
21023;DHT22;10669;51.076;3.714;2022-09-24T06:36:05;14.50;99.90
21023;DHT22;10669;51.076;3.714;2022-09-24T06:38:31;14.40;99.90
21023;DHT22;10669;51.076;3.714;2022-09-24T06:41:00;14.40;99.90
21023;DHT22;10669;51.076;3.714;2022-09-24T06:43:27;14.50;99.90
21023;DHT22;10669;51.076;3.714;2022-09-24T06:45:56;14.50;99.90
21023;DHT22;10669;51.076;3.714;2022-09-24T06:48:24;14.40;99.90
21023;DHT22;10669;51.076;3.714;2022-09-24T06:50:53;14.50;99.90
21023;DHT22;10669;51.076;3.714;2022-09-24T06:53:22;14.50;99.90
21023;DHT22;10669;51.076;3.714;2022-09-24T06:55:48;14.60;99.90
21023;DHT22;10669;51.076;3.714;2022-09-24T06:58:16;14.60;99.90
21023;DHT22;10669;51.076;3.714;2022-09-24T07:00:54;14.60;99.90
21023;DHT22;10669;51.076;3.714;2022-09-24T07:03:24;14.60;99.90
21023;DHT22;10669;51.076;3.714;2022-09-24T07:05:51;14.70;99.90
21023;DHT22;10669;51.076;3.714;2022-09-24T07:08:18;14.60;99.90
21023;DHT22;10669;51.076;3.714;2022-09-24T07:10:44;14.70;99.90
21023;DHT22;10669;51.076;3.714;2022-09-24T07:13:13;14.80;99.90
21023;DHT22;10669;51.076;3.714;2022-09-24T07:15:39;14.70;99.90
21023;DHT22;10669;51.076;3.714;2022-09-24T07:18:06;14.70;99.90
21023;DHT22;10669;51.076;3.714;2022-09-24T07:20:33;14.60;99.90
21023;DHT22;10669;51.076;3.714;2022-09-24T07:23:05;14.70;99.90
21023;DHT22;10669;51.076;3.714;2022-09-24T07:25:32;14.70;99.90
21023;DHT22;10669;51.076;3.714;2022-09-24T07:28:09;14.70;99.90
21023;DHT22;10669;51.076;3.714;2022-09-24T07:30:36;14.70;99.90
21023;DHT22;10669;51.076;3.714;2022-09-24T07:33:03;14.70;99.90
21023;DHT22;10669;51.076;3.714;2022-09-24T07:35:31;14.80;99.90
21023;DHT22;10669;51.076;3.714;2022-09-24T07:38:00;14.70;99.90
21023;DHT22;10669;51.076;3.714;2022-09-24T07:40:26;14.80;99.90
21023;DHT22;10669;51.076;3.714;2022-09-24T07:42:53;14.90;99.90
21023;DHT22;10669;51.076;3.714;2022-09-24T07:45:20;15.00;99.90
21023;DHT22;10669;51.076;3.714;2022-09-24T07:47:46;15.10;99.90
21023;DHT22;10669;51.076;3.714;2022-09-24T07:50:13;15.10;99.90
21023;DHT22;10669;51.076;3.714;2022-09-24T07:52:40;15.10;99.90
21023;DHT22;10669;51.076;3.714;2022-09-24T07:55:06;15.10;99.90
21023;DHT22;10669;51.076;3.714;2022-09-24T07:57:32;15.10;99.90
21023;DHT22;10669;51.076;3.714;2022-09-24T07:59:57;15.10;99.90
21023;DHT22;10669;51.076;3.714;2022-09-24T08:02:23;15.10;99.90
21023;DHT22;10669;51.076;3.714;2022-09-24T08:04:49;15.20;99.90
21023;DHT22;10669;51.076;3.714;2022-09-24T08:07:15;15.20;99.90
21023;DHT22;10669;51.076;3.714;2022-09-24T08:09:42;15.30;99.90
21023;DHT22;10669;51.076;3.714;2022-09-24T08:12:08;15.30;99.90
21023;DHT22;10669;51.076;3.714;2022-09-24T08:14:37;15.40;99.90
21023;DHT22;10669;51.076;3.714;2022-09-24T08:17:03;15.30;99.90
21023;DHT22;10669;51.076;3.714;2022-09-24T08:19:29;15.30;99.90
21023;DHT22;10669;51.076;3.714;2022-09-24T08:21:55;15.20;99.90
21023;DHT22;10669;51.076;3.714;2022-09-24T08:24:23;15.30;99.90
21023;DHT22;10669;51.076;3.714;2022-09-24T08:26:49;15.40;99.90
21023;DHT22;10669;51.076;3.714;2022-09-24T08:29:15;15.60;99.90
21023;DHT22;10669;51.076;3.714;2022-09-24T08:31:41;15.70;99.90
21023;DHT22;10669;51.076;3.714;2022-09-24T08:34:07;15.70;99.90
21023;DHT22;10669;51.076;3.714;2022-09-24T08:36:34;15.70;99.90
21023;DHT22;10669;51.076;3.714;2022-09-24T08:39:00;15.70;99.90
21023;DHT22;10669;51.076;3.714;2022-09-24T08:44:37;15.50;99.90
21023;DHT22;10669;51.076;3.714;2022-09-24T08:50:53;15.40;99.90
21023;DHT22;10669;51.076;3.714;2022-09-24T08:56:25;15.60;99.90
21023;DHT22;10669;51.076;3.714;2022-09-24T08:58:58;15.70;99.90
21023;DHT22;10669;51.076;3.714;2022-09-24T09:01:39;15.90;99.90
21023;DHT22;10669;51.076;3.714;2022-09-24T09:04:25;16.00;99.90
21023;DHT22;10669;51.076;3.714;2022-09-24T09:12:24;15.50;99.90
21023;DHT22;10669;51.076;3.714;2022-09-24T09:15:05;15.50;99.90
21023;DHT22;10669;51.076;3.714;2022-09-24T09:17:58;15.50;99.90
21023;DHT22;10669;51.076;3.714;2022-09-24T09:20:45;15.50;99.90
21023;DHT22;10669;51.076;3.714;2022-09-24T09:23:20;15.40;99.90
21023;DHT22;10669;51.076;3.714;2022-09-24T09:25:50;15.50;99.90
21023;DHT22;10669;51.076;3.714;2022-09-24T09:28:19;15.70;99.90
21023;DHT22;10669;51.076;3.714;2022-09-24T09:36:54;15.80;99.90
21023;DHT22;10669;51.076;3.714;2022-09-24T09:39:35;15.90;99.90
21023;DHT22;10669;51.076;3.714;2022-09-24T09:44:45;16.10;99.90
21023;DHT22;10669;51.076;3.714;2022-09-24T09:47:15;15.90;99.90
21023;DHT22;10669;51.076;3.714;2022-09-24T09:49:44;15.70;99.90
21023;DHT22;10669;51.076;3.714;2022-09-24T09:52:18;15.80;99.90
21023;DHT22;10669;51.076;3.714;2022-09-24T09:54:45;15.80;99.90
21023;DHT22;10669;51.076;3.714;2022-09-24T09:57:17;15.80;99.90
21023;DHT22;10669;51.076;3.714;2022-09-24T09:59:50;15.90;99.90
21023;DHT22;10669;51.076;3.714;2022-09-24T10:02:33;15.80;99.90
21023;DHT22;10669;51.076;3.714;2022-09-24T10:05:04;15.80;99.90
21023;DHT22;10669;51.076;3.714;2022-09-24T10:07:31;15.60;99.90
21023;DHT22;10669;51.076;3.714;2022-09-24T10:10:17;15.60;99.90
21023;DHT22;10669;51.076;3.714;2022-09-24T10:12:43;15.60;99.90
21023;DHT22;10669;51.076;3.714;2022-09-24T10:15:17;15.70;99.90
21023;DHT22;10669;51.076;3.714;2022-09-24T10:17:47;15.70;99.90
21023;DHT22;10669;51.076;3.714;2022-09-24T10:20:25;15.60;99.90
21023;DHT22;10669;51.076;3.714;2022-09-24T10:23:06;15.70;99.90
21023;DHT22;10669;51.076;3.714;2022-09-24T10:25:50;15.70;99.90
21023;DHT22;10669;51.076;3.714;2022-09-24T10:28:20;15.70;99.90
21023;DHT22;10669;51.076;3.714;2022-09-24T10:31:09;15.70;99.90
21023;DHT22;10669;51.076;3.714;2022-09-24T10:33:37;15.70;99.90
21023;DHT22;10669;51.076;3.714;2022-09-24T10:36:06;15.70;99.90
21023;DHT22;10669;51.076;3.714;2022-09-24T10:38:33;15.70;99.90
21023;DHT22;10669;51.076;3.714;2022-09-24T10:40:59;15.90;99.90
21023;DHT22;10669;51.076;3.714;2022-09-24T10:43:26;16.00;99.90
21023;DHT22;10669;51.076;3.714;2022-09-24T10:46:17;16.00;99.90
21023;DHT22;10669;51.076;3.714;2022-09-24T10:51:50;16.00;99.90
21023;DHT22;10669;51.076;3.714;2022-09-24T10:54:35;16.00;99.90
21023;DHT22;10669;51.076;3.714;2022-09-24T10:57:15;16.10;99.90
21023;DHT22;10669;51.076;3.714;2022-09-24T11:00:10;16.50;99.90
21023;DHT22;10669;51.076;3.714;2022-09-24T11:02:47;16.50;99.90
21023;DHT22;10669;51.076;3.714;2022-09-24T11:05:23;16.20;99.90
21023;DHT22;10669;51.076;3.714;2022-09-24T11:08:11;16.10;99.90
21023;DHT22;10669;51.076;3.714;2022-09-24T11:11:05;16.20;99.90
21023;DHT22;10669;51.076;3.714;2022-09-24T11:19:05;15.90;99.90
21023;DHT22;10669;51.076;3.714;2022-09-24T11:24:35;15.70;99.90
21023;DHT22;10669;51.076;3.714;2022-09-24T11:27:40;15.60;99.90
21023;DHT22;10669;51.076;3.714;2022-09-24T11:30:16;15.70;99.90
21023;DHT22;10669;51.076;3.714;2022-09-24T11:32:50;15.70;99.90
21023;DHT22;10669;51.076;3.714;2022-09-24T11:41:59;16.30;99.90
21023;DHT22;10669;51.076;3.714;2022-09-24T11:47:35;16.60;99.90
21023;DHT22;10669;51.076;3.714;2022-09-24T11:50:52;16.50;99.90
21023;DHT22;10669;51.076;3.714;2022-09-24T11:52:55;16.60;99.90
21023;DHT22;10669;51.076;3.714;2022-09-24T11:55:53;16.40;99.90
21023;DHT22;10669;51.076;3.714;2022-09-24T11:58:31;16.40;99.90
21023;DHT22;10669;51.076;3.714;2022-09-24T12:01:19;16.40;99.90
21023;DHT22;10669;51.076;3.714;2022-09-24T12:04:18;16.40;99.90
21023;DHT22;10669;51.076;3.714;2022-09-24T12:06:54;16.60;99.90
21023;DHT22;10669;51.076;3.714;2022-09-24T12:12:08;16.80;99.90
21023;DHT22;10669;51.076;3.714;2022-09-24T12:15:05;17.10;99.90
21023;DHT22;10669;51.076;3.714;2022-09-24T12:17:48;16.90;99.90
21023;DHT22;10669;51.076;3.714;2022-09-24T12:21:37;16.40;99.90
21023;DHT22;10669;51.076;3.714;2022-09-24T12:23:41;16.30;99.90
21023;DHT22;10669;51.076;3.714;2022-09-24T12:26:09;16.00;99.90
21023;DHT22;10669;51.076;3.714;2022-09-24T12:29:25;16.10;99.90
21023;DHT22;10669;51.076;3.714;2022-09-24T12:43:33;16.00;99.90
21023;DHT22;10669;51.076;3.714;2022-09-24T12:46:03;16.00;99.90
21023;DHT22;10669;51.076;3.714;2022-09-24T12:48:36;16.10;99.90
21023;DHT22;10669;51.076;3.714;2022-09-24T12:51:07;16.10;99.90
21023;DHT22;10669;51.076;3.714;2022-09-24T12:53:39;16.10;99.90
21023;DHT22;10669;51.076;3.714;2022-09-24T12:56:09;16.10;99.90
21023;DHT22;10669;51.076;3.714;2022-09-24T12:58:42;16.30;99.90
21023;DHT22;10669;51.076;3.714;2022-09-24T13:01:13;16.30;99.90
21023;DHT22;10669;51.076;3.714;2022-09-24T13:03:40;16.10;99.90
21023;DHT22;10669;51.076;3.714;2022-09-24T13:06:43;16.20;99.90
21023;DHT22;10669;51.076;3.714;2022-09-24T13:09:38;16.00;99.90
21023;DHT22;10669;51.076;3.714;2022-09-24T13:12:19;15.80;99.90
21023;DHT22;10669;51.076;3.714;2022-09-24T13:14:54;16.00;99.90
21023;DHT22;10669;51.076;3.714;2022-09-24T13:17:23;16.10;99.90
21023;DHT22;10669;51.076;3.714;2022-09-24T13:19:57;16.00;99.90
21023;DHT22;10669;51.076;3.714;2022-09-24T13:22:30;16.00;99.90
21023;DHT22;10669;51.076;3.714;2022-09-24T13:27:41;16.20;99.90
21023;DHT22;10669;51.076;3.714;2022-09-24T13:30:30;16.30;99.90
21023;DHT22;10669;51.076;3.714;2022-09-24T13:35:38;16.10;99.90
21023;DHT22;10669;51.076;3.714;2022-09-24T13:40:43;16.00;99.90
21023;DHT22;10669;51.076;3.714;2022-09-24T13:43:16;16.00;99.90
21023;DHT22;10669;51.076;3.714;2022-09-24T13:45:46;15.80;99.90
21023;DHT22;10669;51.076;3.714;2022-09-24T13:48:37;16.00;99.90
21023;DHT22;10669;51.076;3.714;2022-09-24T13:51:10;15.90;99.90
21023;DHT22;10669;51.076;3.714;2022-09-24T13:56:12;16.00;99.90
21023;DHT22;10669;51.076;3.714;2022-09-24T13:58:40;16.20;99.90
21023;DHT22;10669;51.076;3.714;2022-09-24T14:01:17;16.20;99.90
21023;DHT22;10669;51.076;3.714;2022-09-24T14:03:57;16.40;99.90
21023;DHT22;10669;51.076;3.714;2022-09-24T14:06:37;16.20;99.90
21023;DHT22;10669;51.076;3.714;2022-09-24T14:11:58;16.10;99.90
21023;DHT22;10669;51.076;3.714;2022-09-24T14:14:27;16.20;99.90
21023;DHT22;10669;51.076;3.714;2022-09-24T14:17:06;16.20;99.90
21023;DHT22;10669;51.076;3.714;2022-09-24T14:19:32;16.10;99.90
21023;DHT22;10669;51.076;3.714;2022-09-24T14:21:59;16.10;99.90
21023;DHT22;10669;51.076;3.714;2022-09-24T14:24:41;16.10;99.90
21023;DHT22;10669;51.076;3.714;2022-09-24T14:27:12;16.20;99.90
21023;DHT22;10669;51.076;3.714;2022-09-24T14:32:27;16.50;99.90
21023;DHT22;10669;51.076;3.714;2022-09-24T14:35:00;16.40;99.90
21023;DHT22;10669;51.076;3.714;2022-09-24T14:37:33;16.40;99.90
21023;DHT22;10669;51.076;3.714;2022-09-24T14:40:06;16.50;99.90
21023;DHT22;10669;51.076;3.714;2022-09-24T14:42:47;16.40;99.90
21023;DHT22;10669;51.076;3.714;2022-09-24T14:45:21;16.20;99.90
21023;DHT22;10669;51.076;3.714;2022-09-24T14:48:02;16.20;99.90
21023;DHT22;10669;51.076;3.714;2022-09-24T14:50:39;16.40;99.90
21023;DHT22;10669;51.076;3.714;2022-09-24T14:55:45;16.60;99.90
21023;DHT22;10669;51.076;3.714;2022-09-24T14:58:32;16.50;99.90
21023;DHT22;10669;51.076;3.714;2022-09-24T15:01:14;16.50;99.90
21023;DHT22;10669;51.076;3.714;2022-09-24T15:03:46;16.60;99.90
21023;DHT22;10669;51.076;3.714;2022-09-24T15:06:28;16.60;99.90
21023;DHT22;10669;51.076;3.714;2022-09-24T15:09:04;16.70;99.90
21023;DHT22;10669;51.076;3.714;2022-09-24T15:11:40;16.60;99.90
21023;DHT22;10669;51.076;3.714;2022-09-24T15:14:21;16.60;99.90
21023;DHT22;10669;51.076;3.714;2022-09-24T15:17:17;16.70;99.90
21023;DHT22;10669;51.076;3.714;2022-09-24T15:19:44;16.80;99.90
21023;DHT22;10669;51.076;3.714;2022-09-24T15:22:10;16.80;99.90
21023;DHT22;10669;51.076;3.714;2022-09-24T15:24:37;16.80;99.90
21023;DHT22;10669;51.076;3.714;2022-09-24T15:27:15;16.90;99.90
21023;DHT22;10669;51.076;3.714;2022-09-24T15:29:44;16.70;99.90
21023;DHT22;10669;51.076;3.714;2022-09-24T15:32:14;16.70;99.90
21023;DHT22;10669;51.076;3.714;2022-09-24T15:34:42;16.70;99.90
21023;DHT22;10669;51.076;3.714;2022-09-24T15:37:11;16.90;99.90
21023;DHT22;10669;51.076;3.714;2022-09-24T15:39:37;16.80;99.90
21023;DHT22;10669;51.076;3.714;2022-09-24T15:42:04;16.70;99.90
21023;DHT22;10669;51.076;3.714;2022-09-24T15:44:30;16.80;99.90
21023;DHT22;10669;51.076;3.714;2022-09-24T15:46:56;16.90;99.90
21023;DHT22;10669;51.076;3.714;2022-09-24T15:49:23;16.90;99.90
21023;DHT22;10669;51.076;3.714;2022-09-24T15:52:00;16.50;99.90
21023;DHT22;10669;51.076;3.714;2022-09-24T15:54:28;16.40;99.90
21023;DHT22;10669;51.076;3.714;2022-09-24T15:56:54;16.30;99.90
21023;DHT22;10669;51.076;3.714;2022-09-24T15:59:21;16.20;99.90
21023;DHT22;10669;51.076;3.714;2022-09-24T16:01:51;16.20;99.90
21023;DHT22;10669;51.076;3.714;2022-09-24T16:04:20;16.20;99.90
21023;DHT22;10669;51.076;3.714;2022-09-24T16:06:45;16.40;99.90
21023;DHT22;10669;51.076;3.714;2022-09-24T16:09:15;16.30;99.90
21023;DHT22;10669;51.076;3.714;2022-09-24T16:11:43;16.30;99.90
21023;DHT22;10669;51.076;3.714;2022-09-24T16:14:09;16.30;99.90
21023;DHT22;10669;51.076;3.714;2022-09-24T16:16:39;16.30;99.90
21023;DHT22;10669;51.076;3.714;2022-09-24T16:19:06;16.50;99.90
21023;DHT22;10669;51.076;3.714;2022-09-24T16:21:35;16.40;99.90
21023;DHT22;10669;51.076;3.714;2022-09-24T16:24:01;16.30;99.90
21023;DHT22;10669;51.076;3.714;2022-09-24T16:26:27;16.40;99.90
21023;DHT22;10669;51.076;3.714;2022-09-24T16:28:54;16.50;99.90
21023;DHT22;10669;51.076;3.714;2022-09-24T16:31:20;16.40;99.90
21023;DHT22;10669;51.076;3.714;2022-09-24T16:33:46;16.60;99.90
21023;DHT22;10669;51.076;3.714;2022-09-24T16:36:13;16.50;99.90
21023;DHT22;10669;51.076;3.714;2022-09-24T16:38:39;16.50;99.90
21023;DHT22;10669;51.076;3.714;2022-09-24T16:41:07;16.30;99.90
21023;DHT22;10669;51.076;3.714;2022-09-24T16:43:36;16.30;99.90
21023;DHT22;10669;51.076;3.714;2022-09-24T16:46:07;16.20;99.90
21023;DHT22;10669;51.076;3.714;2022-09-24T16:48:34;16.20;99.90
21023;DHT22;10669;51.076;3.714;2022-09-24T16:51:10;16.00;99.90
21023;DHT22;10669;51.076;3.714;2022-09-24T16:53:38;16.10;99.90
21023;DHT22;10669;51.076;3.714;2022-09-24T16:56:16;16.30;99.90
21023;DHT22;10669;51.076;3.714;2022-09-24T16:58:45;16.00;99.90
21023;DHT22;10669;51.076;3.714;2022-09-24T17:01:14;15.90;99.90
21023;DHT22;10669;51.076;3.714;2022-09-24T17:03:43;15.70;99.90
21023;DHT22;10669;51.076;3.714;2022-09-24T17:06:23;15.60;99.90
21023;DHT22;10669;51.076;3.714;2022-09-24T17:08:50;15.50;99.90
21023;DHT22;10669;51.076;3.714;2022-09-24T17:11:36;15.50;99.90
21023;DHT22;10669;51.076;3.714;2022-09-24T17:14:04;15.40;99.90
21023;DHT22;10669;51.076;3.714;2022-09-24T17:16:33;15.30;99.90
21023;DHT22;10669;51.076;3.714;2022-09-24T17:18:59;15.30;99.90
21023;DHT22;10669;51.076;3.714;2022-09-24T17:21:27;15.40;99.90
21023;DHT22;10669;51.076;3.714;2022-09-24T17:23:55;15.30;99.90
21023;DHT22;10669;51.076;3.714;2022-09-24T17:26:24;15.30;99.90
21023;DHT22;10669;51.076;3.714;2022-09-24T17:28:52;15.30;99.90
21023;DHT22;10669;51.076;3.714;2022-09-24T17:31:20;15.30;99.90
21023;DHT22;10669;51.076;3.714;2022-09-24T17:33:56;15.10;99.90